createdAt,value
2018-03-24T00:01:57.830Z,75.10
2018-03-24T00:04:24.720Z,75.20
2018-03-24T00:06:50.945Z,75.20
2018-03-24T00:09:17.095Z,75.30
2018-03-24T00:11:43.278Z,75.40
2018-03-24T00:14:09.438Z,75.40
2018-03-24T00:16:36.331Z,75.80
2018-03-24T00:19:02.511Z,75.70
2018-03-24T00:21:28.690Z,75.80
2018-03-24T00:23:55.367Z,75.70
2018-03-24T00:26:21.509Z,75.70
2018-03-24T00:28:47.672Z,75.60
2018-03-24T00:31:13.843Z,75.60
2018-03-24T00:33:40.774Z,75.40
2018-03-24T00:36:06.948Z,75.40
2018-03-24T00:38:33.837Z,75.40
2018-03-24T00:41:00.003Z,75.40
2018-03-24T00:43:26.165Z,75.50
2018-03-24T00:45:52.339Z,75.40
2018-03-24T00:48:18.502Z,75.40
2018-03-24T00:50:44.712Z,75.20
2018-03-24T00:53:10.852Z,75.10
2018-03-24T00:55:36.999Z,75.30
2018-03-24T00:58:03.167Z,75.10
2018-03-24T01:00:30.104Z,75.30
2018-03-24T01:02:56.269Z,75.30
2018-03-24T01:05:23.173Z,75.20
2018-03-24T01:07:49.438Z,75.20
2018-03-24T01:10:15.688Z,75.40
2018-03-24T01:12:41.855Z,75.40
2018-03-24T01:15:07.989Z,75.30
2018-03-24T01:17:34.200Z,75.50
2018-03-24T01:20:00.345Z,75.50
2018-03-24T01:22:26.533Z,75.30
2018-03-24T01:24:52.749Z,75.50
2018-03-24T01:27:18.921Z,75.60
2018-03-24T01:29:45.851Z,75.80
2018-03-24T01:32:11.999Z,75.80
2018-03-24T01:34:38.162Z,76.00
2018-03-24T01:37:05.058Z,75.70
2018-03-24T01:39:31.228Z,75.60
2018-03-24T01:41:57.405Z,76.40
2018-03-24T01:44:23.564Z,75.50
2018-03-24T01:46:49.755Z,75.90
2018-03-24T01:49:15.962Z,76.00
2018-03-24T01:51:42.140Z,75.90
2018-03-24T01:54:08.291Z,75.80
2018-03-24T01:56:35.197Z,75.60
2018-03-24T01:59:02.270Z,76.40
2018-03-24T02:01:28.412Z,75.50
2018-03-24T02:03:54.595Z,75.40
2018-03-24T02:06:21.473Z,75.30
2018-03-24T02:08:47.650Z,75.30
2018-03-24T02:11:13.822Z,75.30
2018-03-24T02:13:40.743Z,75.40
2018-03-24T02:16:06.886Z,75.40
2018-03-24T02:18:33.044Z,75.30
2018-03-24T02:21:00.218Z,75.20
2018-03-24T02:23:27.175Z,75.40
2018-03-24T02:25:54.078Z,75.30
2018-03-24T02:28:20.243Z,75.30
2018-03-24T02:30:46.461Z,75.30
2018-03-24T02:33:12.612Z,75.20
2018-03-24T02:35:38.786Z,75.30
2018-03-24T02:38:05.675Z,76.10
2018-03-24T02:40:31.867Z,75.30
2018-03-24T02:42:58.040Z,75.50
2018-03-24T02:45:24.946Z,75.40
2018-03-24T02:47:51.822Z,75.30
2018-03-24T02:50:18.014Z,75.30
2018-03-24T02:52:44.226Z,75.30
2018-03-24T02:55:10.428Z,75.20
2018-03-24T02:57:36.576Z,75.00
2018-03-24T03:00:02.815Z,75.20
2018-03-24T03:02:28.969Z,75.40
2018-03-24T03:04:55.142Z,75.70
2018-03-24T03:07:21.329Z,75.80
2018-03-24T03:09:47.608Z,75.70
2018-03-24T03:12:14.501Z,75.90
2018-03-24T03:14:40.709Z,75.80
2018-03-24T03:17:07.700Z,75.80
2018-03-24T03:19:34.553Z,75.80
2018-03-24T03:22:00.772Z,75.80
2018-03-24T03:24:26.968Z,75.80
2018-03-24T03:26:53.147Z,75.90
2018-03-24T03:29:20.086Z,75.70
2018-03-24T03:32:05.898Z,76.00
2018-03-24T03:34:32.120Z,76.00
2018-03-24T03:36:58.261Z,75.60
2018-03-24T03:39:24.448Z,75.70
2018-03-24T03:41:50.611Z,75.20
2018-03-24T03:44:16.856Z,75.10
2018-03-24T03:46:43.068Z,75.20
2018-03-24T03:49:09.249Z,75.50
2018-03-24T03:51:35.396Z,75.50
2018-03-24T03:54:01.563Z,75.80
2018-03-24T03:56:28.453Z,75.70
2018-03-24T03:58:54.642Z,75.70
2018-03-24T04:01:20.788Z,75.70
2018-03-24T04:03:47.891Z,76.20
2018-03-24T04:06:14.073Z,76.20
2018-03-24T04:08:40.249Z,76.40
2018-03-24T04:11:06.393Z,76.30
2018-03-24T04:13:32.529Z,76.30
2018-03-24T04:15:58.694Z,76.90
2018-03-24T04:18:24.826Z,76.90
2018-03-24T04:20:50.953Z,77.00
2018-03-24T04:23:17.166Z,77.30
2018-03-24T04:25:44.077Z,77.50
2018-03-24T04:28:10.257Z,77.50
2018-03-24T04:30:38.171Z,77.70
2018-03-24T04:33:04.370Z,77.70
2018-03-24T04:35:31.477Z,78.00
2018-03-24T04:37:57.665Z,78.00
2018-03-24T04:40:23.842Z,78.00
2018-03-24T04:42:50.015Z,78.20
2018-03-24T04:45:16.180Z,78.60
2018-03-24T04:47:42.364Z,78.70
2018-03-24T04:50:08.512Z,79.00
2018-03-24T04:52:34.661Z,79.10
2018-03-24T04:55:00.889Z,79.00
2018-03-24T04:57:27.098Z,79.10
2018-03-24T04:59:54.052Z,79.40
2018-03-24T05:02:20.977Z,79.20
2018-03-24T05:04:47.149Z,78.70
2018-03-24T05:07:14.077Z,78.80
2018-03-24T05:09:40.285Z,78.80
2018-03-24T05:12:06.443Z,79.00
2018-03-24T05:14:32.645Z,79.30
2018-03-24T05:16:58.846Z,79.60
2018-03-24T05:19:24.995Z,80.00
2018-03-24T05:21:51.160Z,80.20
2018-03-24T05:24:18.247Z,80.30
2018-03-24T05:26:44.408Z,80.30
2018-03-24T05:29:10.606Z,80.10
2018-03-24T05:31:36.781Z,80.00
2018-03-24T05:34:02.967Z,79.90
2018-03-24T05:36:30.030Z,80.40
2018-03-24T05:38:56.935Z,80.10
2018-03-24T05:41:23.088Z,80.10
2018-03-24T05:43:49.626Z,80.00
2018-03-24T05:46:15.810Z,79.70
2018-03-24T05:48:42.101Z,79.30
2018-03-24T05:51:08.182Z,78.60
2018-03-24T05:53:34.338Z,78.20
2018-03-24T05:56:01.224Z,77.70
2018-03-24T05:58:27.398Z,77.60
2018-03-24T06:00:54.345Z,76.80
2018-03-24T06:03:20.496Z,76.80
2018-03-24T06:05:46.708Z,76.50
2018-03-24T06:08:12.857Z,76.50
2018-03-24T06:10:40.283Z,76.30
2018-03-24T06:13:06.449Z,76.30
2018-03-24T06:15:32.662Z,76.00
2018-03-24T06:17:59.598Z,76.20
2018-03-24T06:20:25.769Z,76.20
2018-03-24T06:22:51.903Z,76.30
2018-03-24T06:25:18.136Z,76.20
2018-03-24T06:27:45.056Z,75.90
2018-03-24T06:30:14.141Z,75.80
2018-03-24T06:32:40.332Z,75.50
2018-03-24T06:35:07.276Z,75.10
2018-03-24T06:37:33.461Z,75.00
2018-03-24T06:39:59.672Z,72.90
2018-03-24T06:42:26.554Z,65.80
2018-03-24T06:44:52.749Z,65.70
2018-03-24T06:47:18.925Z,62.50
2018-03-24T06:49:45.875Z,57.80
2018-03-24T06:52:12.809Z,57.10
2018-03-24T06:54:39.022Z,57.10
2018-03-24T06:57:05.220Z,55.70
2018-03-24T06:59:31.421Z,55.30
2018-03-24T07:01:57.593Z,54.20
2018-03-24T07:04:23.791Z,53.30
2018-03-24T07:06:49.965Z,53.70
2018-03-24T07:09:16.927Z,52.20
2018-03-24T07:11:43.813Z,52.20
2018-03-24T07:14:10.132Z,52.10
2018-03-24T07:16:36.328Z,51.90
2018-03-24T07:19:02.506Z,51.20
2018-03-24T07:21:29.435Z,50.60
2018-03-24T07:23:55.678Z,50.50
2018-03-24T07:26:21.894Z,51.40
2018-03-24T07:28:48.113Z,50.10
2018-03-24T07:31:14.423Z,50.10
2018-03-24T07:33:41.405Z,51.80
2018-03-24T07:36:07.562Z,51.70
2018-03-24T07:38:33.790Z,52.40
2018-03-24T07:40:59.977Z,52.40
2018-03-24T07:43:26.472Z,52.20
2018-03-24T07:45:52.717Z,52.60
2018-03-24T07:48:18.911Z,53.10
2018-03-24T07:50:45.093Z,52.50
2018-03-24T07:53:11.315Z,52.60
2018-03-24T07:55:38.248Z,51.60
2018-03-24T07:58:04.408Z,51.50
2018-03-24T08:00:31.358Z,47.90
2018-03-24T08:02:58.271Z,46.80
2018-03-24T08:05:24.406Z,46.40
2018-03-24T08:07:50.614Z,43.10
2018-03-24T08:10:16.880Z,44.30
2018-03-24T08:12:43.022Z,43.80
2018-03-24T08:15:09.214Z,44.20
2018-03-24T08:17:36.190Z,43.40
2018-03-24T08:20:03.136Z,41.50
2018-03-24T08:22:30.052Z,42.20
2018-03-24T08:24:56.222Z,41.60
2018-03-24T08:27:23.294Z,40.70
2018-03-24T08:29:50.596Z,38.60
2018-03-24T08:32:16.983Z,38.60
2018-03-24T08:34:43.233Z,39.30
2018-03-24T08:37:10.238Z,37.70
2018-03-24T08:39:36.478Z,37.70
2018-03-24T08:42:02.634Z,37.40
2018-03-24T08:44:28.893Z,35.10
2018-03-24T08:46:55.845Z,36.10
2018-03-24T08:49:22.905Z,36.80
2018-03-24T08:51:49.052Z,36.60
2018-03-24T08:54:16.014Z,34.30
2018-03-24T08:56:42.218Z,33.80
2018-03-24T08:59:08.456Z,31.90
2018-03-24T09:01:34.624Z,29.80
2018-03-24T09:04:01.037Z,31.90
2018-03-24T09:06:27.229Z,33.40
2018-03-24T09:08:53.409Z,31.00
2018-03-24T09:11:19.689Z,32.10
2018-03-24T09:13:46.036Z,32.10
2018-03-24T09:16:12.251Z,31.80
2018-03-24T09:18:38.410Z,30.60
2018-03-24T09:21:04.596Z,30.00
2018-03-24T09:23:31.512Z,34.30
2018-03-24T09:25:57.656Z,34.30
2018-03-24T09:28:23.895Z,30.20
2018-03-24T09:30:52.103Z,33.00
2018-03-24T09:33:18.259Z,34.90
2018-03-24T09:35:45.212Z,33.40
2018-03-24T09:38:12.132Z,31.70
2018-03-24T09:40:38.305Z,31.60
2018-03-24T09:43:05.229Z,32.10
2018-03-24T09:45:31.390Z,32.10
2018-03-24T09:47:57.565Z,30.90
2018-03-24T09:50:24.468Z,31.50
2018-03-24T09:52:50.705Z,31.40
2018-03-24T09:55:16.946Z,30.80
2018-03-24T09:57:43.122Z,32.90
2018-03-24T10:00:10.118Z,30.30
2018-03-24T10:02:36.331Z,30.30
2018-03-24T10:05:02.564Z,31.70
2018-03-24T10:07:29.645Z,33.80
2018-03-24T10:09:55.823Z,33.80
2018-03-24T10:12:22.750Z,32.60
2018-03-24T10:14:48.933Z,32.60
2018-03-24T10:17:15.093Z,35.20
2018-03-24T10:19:42.032Z,31.00
2018-03-24T10:25:10.782Z,32.40
2018-03-24T10:27:37.712Z,31.70
2018-03-24T10:30:03.904Z,31.00
2018-03-24T10:32:33.925Z,31.10
2018-03-24T10:35:04.947Z,34.60
2018-03-24T10:37:31.121Z,34.60
2018-03-24T10:39:57.340Z,31.10
2018-03-24T10:42:23.517Z,35.40
2018-03-24T10:44:49.698Z,31.40
2018-03-24T10:47:15.973Z,30.50
2018-03-24T10:49:42.908Z,31.50
2018-03-24T10:52:09.098Z,31.50
2018-03-24T10:54:35.445Z,31.00
2018-03-24T10:57:01.737Z,30.10
2018-03-24T10:59:28.263Z,31.00
2018-03-24T11:01:54.754Z,30.80
2018-03-24T11:04:21.106Z,32.70
2018-03-24T11:06:47.962Z,34.50
2018-03-24T11:09:14.567Z,32.30
2018-03-24T11:11:41.101Z,29.80
2018-03-24T11:14:08.169Z,29.90
2018-03-24T11:16:34.619Z,30.00
2018-03-24T11:19:00.912Z,29.80
2018-03-24T11:21:27.274Z,29.80
2018-03-24T11:23:53.813Z,32.90
2018-03-24T11:26:20.299Z,30.50
2018-03-24T11:28:46.825Z,33.00
2018-03-24T11:31:13.231Z,29.00
2018-03-24T11:33:45.664Z,28.80
2018-03-24T11:36:12.764Z,28.40
2018-03-24T11:38:39.936Z,28.90
2018-03-24T11:41:06.393Z,28.80
2018-03-24T11:43:32.766Z,29.50
2018-03-24T11:45:59.164Z,30.60
2018-03-24T11:48:26.194Z,33.10
2018-03-24T11:50:52.558Z,33.10
2018-03-24T11:53:19.701Z,32.70
2018-03-24T11:55:48.906Z,32.60
2018-03-24T11:58:18.094Z,29.90
2018-03-24T12:00:45.989Z,29.90
2018-03-24T12:03:13.938Z,31.20
2018-03-24T12:05:40.284Z,31.10
2018-03-24T12:08:07.667Z,30.80
2018-03-24T12:10:34.032Z,29.80
2018-03-24T12:13:00.477Z,29.50
2018-03-24T12:15:26.794Z,31.00
2018-03-24T12:17:53.088Z,30.60
2018-03-24T12:20:19.403Z,31.90
2018-03-24T12:22:46.092Z,30.50
2018-03-24T12:25:12.430Z,30.80
2018-03-24T12:27:39.462Z,28.20
2018-03-24T12:30:05.799Z,28.20
2018-03-24T12:32:32.092Z,28.50
2018-03-24T12:34:59.157Z,29.70
2018-03-24T12:37:25.522Z,29.60
2018-03-24T12:39:52.109Z,29.80
2018-03-24T12:42:18.813Z,30.00
2018-03-24T12:44:46.914Z,29.90
2018-03-24T12:47:14.091Z,32.20
2018-03-24T12:49:40.493Z,32.20
2018-03-24T12:52:06.948Z,31.50
2018-03-24T12:54:33.334Z,31.50
2018-03-24T12:57:00.147Z,32.50
2018-03-24T12:59:26.607Z,30.80
2018-03-24T13:01:52.975Z,31.70
2018-03-24T13:04:19.922Z,30.20
2018-03-24T13:06:47.312Z,33.30
2018-03-24T13:09:13.742Z,31.90
2018-03-24T13:11:40.176Z,31.90
2018-03-24T13:14:06.862Z,36.80
2018-03-24T13:16:33.207Z,31.80
2018-03-24T13:18:59.520Z,31.20
2018-03-24T13:21:25.880Z,31.00
2018-03-24T13:23:52.180Z,30.20
2018-03-24T13:26:18.639Z,30.40
2018-03-24T13:28:45.735Z,30.20
2018-03-24T13:31:12.130Z,31.70
2018-03-24T13:33:38.386Z,29.50
2018-03-24T13:36:04.708Z,30.00
2018-03-24T13:38:31.061Z,31.40
2018-03-24T13:40:57.366Z,32.10
2018-03-24T13:43:23.633Z,32.70
2018-03-24T13:45:50.674Z,34.90
2018-03-24T13:48:17.492Z,34.70
2018-03-24T13:50:43.834Z,33.10
2018-03-24T13:53:10.233Z,32.70
2018-03-24T13:55:37.301Z,31.30
2018-03-24T13:58:03.598Z,31.20
2018-03-24T14:00:30.026Z,30.20
2018-03-24T14:02:56.286Z,30.50
2018-03-24T14:05:22.606Z,30.00
2018-03-24T14:07:48.986Z,29.10
2018-03-24T14:10:16.068Z,29.30
2018-03-24T14:12:43.118Z,28.60
2018-03-24T14:15:10.141Z,28.60
2018-03-24T14:17:36.385Z,28.50
2018-03-24T14:20:02.673Z,29.00
2018-03-24T14:22:29.747Z,28.50
2018-03-24T14:24:56.204Z,28.50
2018-03-24T14:27:22.475Z,29.10
2018-03-24T14:29:48.939Z,29.60
2018-03-24T14:32:15.322Z,29.60
2018-03-24T14:34:41.595Z,29.20
2018-03-24T14:37:07.899Z,28.50
2018-03-24T14:39:34.947Z,29.70
2018-03-24T14:42:01.248Z,29.70
2018-03-24T14:44:27.502Z,30.60
2018-03-24T14:46:53.785Z,30.90
2018-03-24T14:49:35.647Z,29.60
2018-03-24T14:52:01.982Z,29.60
2018-03-24T14:54:28.237Z,29.20
2018-03-24T14:56:54.553Z,29.70
2018-03-24T14:59:20.834Z,29.80
2018-03-24T15:01:47.584Z,29.90
2018-03-24T15:04:13.898Z,30.20
2018-03-24T15:06:40.212Z,29.90
2018-03-24T15:09:06.497Z,29.60
2018-03-24T15:11:32.890Z,29.00
2018-03-24T15:13:59.186Z,29.10
2018-03-24T15:16:25.458Z,30.90
2018-03-24T15:18:51.746Z,30.60
2018-03-24T15:21:18.012Z,29.70
2018-03-24T15:23:44.293Z,29.70
2018-03-24T15:26:10.615Z,29.80
2018-03-24T15:28:36.892Z,29.90
2018-03-24T15:31:14.328Z,29.50
2018-03-24T15:33:52.823Z,31.30
2018-03-24T15:36:31.353Z,30.60
2018-03-24T15:38:57.616Z,30.70
2018-03-24T15:41:23.904Z,31.90
2018-03-24T15:43:50.303Z,31.40
2018-03-24T15:46:16.734Z,30.50
2018-03-24T15:48:42.998Z,30.30
2018-03-24T15:51:09.313Z,31.40
2018-03-24T15:53:35.603Z,30.40
2018-03-24T15:56:02.686Z,31.40
2018-03-24T15:58:28.905Z,31.40
2018-03-24T16:00:55.224Z,32.50
2018-03-24T16:03:21.524Z,33.40
2018-03-24T16:05:48.561Z,32.10
2018-03-24T16:08:14.870Z,32.10
2018-03-24T16:10:41.126Z,33.20
2018-03-24T16:13:07.411Z,32.50
2018-03-24T16:15:34.475Z,34.40
2018-03-24T16:18:01.494Z,34.60
2018-03-24T16:20:47.014Z,34.50
2018-03-24T16:23:13.309Z,33.80
2018-03-24T16:25:39.579Z,34.40
2018-03-24T16:28:05.853Z,33.80
2018-03-24T16:30:32.108Z,36.00
2018-03-24T16:32:59.105Z,36.00
2018-03-24T16:35:25.481Z,36.00
2018-03-24T16:37:51.819Z,36.50
2018-03-24T16:40:18.351Z,37.40
2018-03-24T16:42:44.637Z,37.00
2018-03-24T16:45:11.698Z,37.70
2018-03-24T16:47:37.996Z,37.60
2018-03-24T16:50:04.352Z,41.10
2018-03-24T16:52:30.658Z,38.80
2018-03-24T16:54:57.627Z,39.90
2018-03-24T16:57:23.894Z,40.00
2018-03-24T16:59:50.246Z,39.30
2018-03-24T17:02:16.652Z,39.30
2018-03-24T17:04:42.916Z,42.60
2018-03-24T17:07:09.266Z,43.10
2018-03-24T17:09:35.572Z,43.00
2018-03-24T17:12:01.923Z,42.10
2018-03-24T17:14:28.196Z,41.40
2018-03-24T17:16:54.451Z,42.50
2018-03-24T17:19:20.770Z,45.20
2018-03-24T17:21:47.142Z,43.20
2018-03-24T17:24:14.182Z,44.10
2018-03-24T17:26:40.499Z,44.10
2018-03-24T17:29:06.801Z,46.70
2018-03-24T17:31:33.814Z,45.10
2018-03-24T17:34:04.214Z,45.20
2018-03-24T17:36:31.377Z,43.40
2018-03-24T17:38:57.671Z,42.80
2018-03-24T17:41:23.954Z,43.80
2018-03-24T17:43:51.016Z,45.70
2018-03-24T17:46:17.387Z,45.60
2018-03-24T17:48:43.716Z,46.30
2018-03-24T17:51:10.110Z,46.40
2018-03-24T17:53:36.504Z,47.10
2018-03-24T17:56:02.917Z,47.60
2018-03-24T17:58:30.977Z,48.80
2018-03-24T18:01:01.016Z,48.30
2018-03-24T18:03:27.378Z,48.40
2018-03-24T18:08:48.628Z,51.00
2018-03-24T18:11:15.509Z,51.10
2018-03-24T18:13:41.934Z,50.40
2018-03-24T18:16:13.363Z,49.00
2018-03-24T18:18:39.699Z,49.00
2018-03-24T18:21:06.112Z,49.00
2018-03-24T18:23:33.127Z,49.70
2018-03-24T18:25:59.426Z,49.70
2018-03-24T18:28:25.681Z,50.70
2018-03-24T18:30:51.955Z,50.40
2018-03-24T18:33:18.347Z,49.80
2018-03-24T18:35:44.664Z,49.10
2018-03-24T18:41:04.340Z,50.10
2018-03-24T18:43:30.717Z,50.10
2018-03-24T18:45:57.046Z,51.00
2018-03-24T18:48:23.328Z,51.10
2018-03-24T18:50:50.681Z,51.70
2018-03-24T18:53:17.634Z,51.70
2018-03-24T18:55:44.034Z,52.10
2018-03-24T18:58:10.298Z,52.10
2018-03-24T19:00:36.654Z,52.60
2018-03-24T19:03:02.991Z,52.60
2018-03-24T19:05:29.247Z,52.70
2018-03-24T19:07:55.538Z,53.20
2018-03-24T19:10:21.817Z,53.40
2018-03-24T19:15:43.145Z,53.70
2018-03-24T19:18:09.461Z,53.90
2018-03-24T19:20:35.746Z,54.20
2018-03-24T19:23:02.037Z,54.50
2018-03-24T19:25:28.349Z,54.70
2018-03-24T19:27:54.689Z,54.70
2018-03-24T19:30:21.285Z,55.20
2018-03-24T19:32:48.409Z,55.30
2018-03-24T19:35:14.892Z,55.40
2018-03-24T19:37:41.294Z,55.90
2018-03-24T19:40:07.571Z,56.30
2018-03-24T19:42:34.601Z,56.90
2018-03-24T19:45:00.880Z,56.80
2018-03-24T19:47:27.182Z,56.90
2018-03-24T19:49:53.486Z,56.30
2018-03-24T19:52:20.054Z,56.60
2018-03-24T19:54:46.869Z,56.20
2018-03-24T19:57:13.151Z,57.50
2018-03-24T19:59:40.301Z,55.10
2018-03-24T20:02:06.588Z,55.00
2018-03-24T20:04:32.846Z,55.60
2018-03-24T20:06:59.140Z,55.20
2018-03-24T20:09:25.444Z,55.50
2018-03-24T20:11:52.539Z,55.70
2018-03-24T20:14:18.886Z,55.70
2018-03-24T20:16:45.215Z,56.10
2018-03-24T20:19:11.504Z,56.40
2018-03-24T20:21:38.589Z,56.80
2018-03-24T20:24:04.864Z,56.50
2018-03-24T20:26:31.193Z,56.70
2018-03-24T20:28:57.504Z,57.40
2018-03-24T20:31:24.546Z,57.10
2018-03-24T20:33:50.961Z,56.80
2018-03-24T20:36:17.475Z,57.00
2018-03-24T20:38:43.865Z,56.80
2018-03-24T20:41:10.138Z,56.70
2018-03-24T20:43:37.166Z,57.40
2018-03-24T20:46:03.495Z,57.40
2018-03-24T20:48:29.840Z,57.50
2018-03-24T20:50:56.136Z,57.40
2018-03-24T20:53:23.141Z,57.40
2018-03-24T20:55:49.491Z,57.40
2018-03-24T20:58:15.983Z,57.70
2018-03-24T21:00:43.029Z,58.00
2018-03-24T21:03:10.039Z,58.00
2018-03-24T21:05:36.316Z,58.00
2018-03-24T21:08:02.616Z,58.00
2018-03-24T21:10:28.870Z,58.00
2018-03-24T21:12:55.198Z,58.20
2018-03-24T21:15:21.494Z,58.20
2018-03-24T21:17:48.102Z,58.00
2018-03-24T21:20:14.561Z,58.50
2018-03-24T21:22:40.856Z,58.70
2018-03-24T21:25:07.875Z,59.00
2018-03-24T21:27:34.168Z,59.00
2018-03-24T21:30:00.421Z,59.00
2018-03-24T21:32:26.723Z,59.00
2018-03-24T21:34:53.062Z,58.90
2018-03-24T21:37:19.380Z,59.00
2018-03-24T21:39:45.697Z,59.20
2018-03-24T21:42:12.039Z,59.30
2018-03-24T21:44:38.295Z,59.30
2018-03-24T21:47:04.834Z,58.60
2018-03-24T21:49:31.126Z,58.50
2018-03-24T21:51:58.104Z,58.40
2018-03-24T21:54:25.123Z,58.70
2018-03-24T21:56:51.405Z,58.70
2018-03-24T21:59:18.536Z,58.30
2018-03-24T22:01:44.852Z,58.80
2018-03-24T22:04:11.929Z,58.80
2018-03-24T22:06:38.219Z,58.80
2018-03-24T22:09:04.524Z,58.90
2018-03-24T22:11:30.940Z,59.00
2018-03-24T22:13:57.194Z,58.40
2018-03-24T22:16:23.457Z,58.70
2018-03-24T22:18:51.275Z,59.60
2018-03-24T22:21:18.120Z,59.60
2018-03-24T22:23:44.552Z,58.40
2018-03-24T22:26:10.898Z,58.50
2018-03-24T22:28:37.886Z,58.90
2018-03-24T22:31:04.159Z,58.30
2018-03-24T22:33:30.444Z,58.30
2018-03-24T22:35:57.414Z,59.30
2018-03-24T22:38:23.726Z,59.20
2018-03-24T22:40:50.025Z,59.70
2018-03-24T22:43:16.539Z,59.70
2018-03-24T22:45:43.551Z,60.00
2018-03-24T22:48:09.954Z,60.00
2018-03-24T22:50:36.259Z,59.80
2018-03-24T22:53:02.530Z,59.70
2018-03-24T22:55:29.517Z,60.10
2018-03-24T22:57:55.791Z,60.10
2018-03-24T23:00:22.874Z,60.30
2018-03-24T23:02:49.222Z,60.30
2018-03-24T23:05:16.289Z,60.60
2018-03-24T23:07:42.641Z,60.70
2018-03-24T23:10:09.655Z,60.90
2018-03-24T23:12:35.922Z,60.90
2018-03-24T23:15:02.225Z,61.40
2018-03-24T23:17:28.456Z,62.10
2018-03-24T23:19:54.705Z,62.10
2018-03-24T23:22:21.014Z,62.00
2018-03-24T23:24:48.179Z,61.60
2018-03-24T23:27:15.202Z,61.90
2018-03-24T23:29:41.547Z,61.80
2018-03-24T23:32:07.847Z,62.30
2018-03-24T23:34:34.095Z,62.10
2018-03-24T23:37:00.397Z,61.90
2018-03-24T23:39:26.770Z,62.30
2018-03-24T23:41:53.828Z,61.10
2018-03-24T23:44:20.123Z,61.10
2018-03-24T23:46:46.448Z,61.40
2018-03-24T23:49:12.802Z,62.10
2018-03-24T23:51:39.065Z,62.50
2018-03-24T23:54:06.109Z,63.60
2018-03-24T23:56:32.373Z,63.60
2018-03-24T23:58:59.416Z,65.00
